sensor_id;sensor_type;location;lat;lon;timestamp;pressure;altitude;pressure_sealevel;temperature;humidity
24422;BME280;12600;53.326;-6.298;2023-03-21T00:02:32;99958.91;;;13.63;71.82
24422;BME280;12600;53.326;-6.298;2023-03-21T00:05:22;99967.69;;;13.68;71.67
24422;BME280;12600;53.326;-6.298;2023-03-21T00:08:12;99963.72;;;13.66;71.88
24422;BME280;12600;53.326;-6.298;2023-03-21T00:11:04;99957.28;;;13.62;71.75
24422;BME280;12600;53.326;-6.298;2023-03-21T00:13:54;99946.44;;;13.65;71.83
24422;BME280;12600;53.326;-6.298;2023-03-21T00:16:45;99944.84;;;13.64;71.37
24422;BME280;12600;53.326;-6.298;2023-03-21T00:19:39;99943.13;;;13.60;71.46
24422;BME280;12600;53.326;-6.298;2023-03-21T00:22:28;99936.84;;;13.59;71.65
24422;BME280;12600;53.326;-6.298;2023-03-21T00:25:19;99920.06;;;13.49;71.34
24422;BME280;12600;53.326;-6.298;2023-03-21T00:28:08;99913.78;;;13.48;71.32
24422;BME280;12600;53.326;-6.298;2023-03-21T00:30:58;99913.78;;;13.48;71.73
24422;BME280;12600;53.326;-6.298;2023-03-21T00:33:48;99926.44;;;13.53;71.59
24422;BME280;12600;53.326;-6.298;2023-03-21T00:36:37;99930.66;;;13.62;71.67
24422;BME280;12600;53.326;-6.298;2023-03-21T00:39:27;99916.69;;;13.67;71.79
24422;BME280;12600;53.326;-6.298;2023-03-21T00:42:18;99919.88;;;13.69;71.63
24422;BME280;12600;53.326;-6.298;2023-03-21T00:45:08;99920.44;;;13.75;71.68
24422;BME280;12600;53.326;-6.298;2023-03-21T00:47:57;99912.66;;;13.77;71.43
24422;BME280;12600;53.326;-6.298;2023-03-21T00:50:51;99908.88;;;13.82;72.24
24422;BME280;12600;53.326;-6.298;2023-03-21T00:53:42;99907.13;;;13.89;71.90
24422;BME280;12600;53.326;-6.298;2023-03-21T00:56:31;99902.53;;;13.93;71.75
24422;BME280;12600;53.326;-6.298;2023-03-21T00:59:22;99898.38;;;13.99;71.98
24422;BME280;12600;53.326;-6.298;2023-03-21T01:02:11;99896.53;;;14.04;72.01
24422;BME280;12600;53.326;-6.298;2023-03-21T01:05:10;99886.34;;;14.04;71.77
24422;BME280;12600;53.326;-6.298;2023-03-21T01:08:20;99884.66;;;13.99;71.84
24422;BME280;12600;53.326;-6.298;2023-03-21T01:11:20;99884.41;;;14.05;72.27
24422;BME280;12600;53.326;-6.298;2023-03-21T01:14:12;99869.53;;;14.06;72.38
24422;BME280;12600;53.326;-6.298;2023-03-21T01:17:11;99873.16;;;14.10;72.48
24422;BME280;12600;53.326;-6.298;2023-03-21T01:20:01;99847.09;;;14.04;72.53
24422;BME280;12600;53.326;-6.298;2023-03-21T01:22:53;99848.91;;;14.12;72.08
24422;BME280;12600;53.326;-6.298;2023-03-21T01:25:42;99854.47;;;14.15;72.28
24422;BME280;12600;53.326;-6.298;2023-03-21T01:28:32;99843.66;;;14.07;71.59
24422;BME280;12600;53.326;-6.298;2023-03-21T01:31:22;99842.69;;;14.15;71.88
24422;BME280;12600;53.326;-6.298;2023-03-21T01:34:13;99821.41;;;14.12;71.73
24422;BME280;12600;53.326;-6.298;2023-03-21T01:37:03;99824.78;;;14.21;71.29
24422;BME280;12600;53.326;-6.298;2023-03-21T01:40:02;99819.00;;;14.26;71.20
24422;BME280;12600;53.326;-6.298;2023-03-21T01:42:52;99813.88;;;14.24;71.62
24422;BME280;12600;53.326;-6.298;2023-03-21T01:46:18;99807.59;;;14.24;71.17
24422;BME280;12600;53.326;-6.298;2023-03-21T01:49:32;99803.44;;;14.14;71.42
24422;BME280;12600;53.326;-6.298;2023-03-21T01:52:36;99804.75;;;14.20;71.33
24422;BME280;12600;53.326;-6.298;2023-03-21T01:55:36;99800.56;;;14.26;71.32
24422;BME280;12600;53.326;-6.298;2023-03-21T01:58:41;99800.56;;;14.26;71.44
24422;BME280;12600;53.326;-6.298;2023-03-21T02:02:08;99796.59;;;14.24;71.31
24422;BME280;12600;53.326;-6.298;2023-03-21T02:05:13;99790.38;;;14.27;71.56
24422;BME280;12600;53.326;-6.298;2023-03-21T02:08:05;99784.44;;;14.25;71.32
24422;BME280;12600;53.326;-6.298;2023-03-21T02:10:56;99781.34;;;14.26;71.62
24422;BME280;12600;53.326;-6.298;2023-03-21T02:14:01;99770.34;;;14.26;71.74
24422;BME280;12600;53.326;-6.298;2023-03-21T02:17:14;99767.53;;;14.23;71.07
24422;BME280;12600;53.326;-6.298;2023-03-21T02:24:27;99734.50;;;14.04;71.21
24422;BME280;12600;53.326;-6.298;2023-03-21T02:27:22;99731.66;;;14.00;71.40
24422;BME280;12600;53.326;-6.298;2023-03-21T02:30:41;99724.38;;;13.92;72.01
24422;BME280;12600;53.326;-6.298;2023-03-21T02:34:22;99719.94;;;13.87;71.91
24422;BME280;12600;53.326;-6.298;2023-03-21T02:37:30;99721.09;;;13.86;71.96
24422;BME280;12600;53.326;-6.298;2023-03-21T02:40:31;99719.50;;;13.85;72.14
24422;BME280;12600;53.326;-6.298;2023-03-21T02:43:29;99717.84;;;13.81;72.12
24422;BME280;12600;53.326;-6.298;2023-03-21T02:46:27;99711.97;;;13.82;72.18
24422;BME280;12600;53.326;-6.298;2023-03-21T02:49:39;99711.97;;;13.82;72.47
24422;BME280;12600;53.326;-6.298;2023-03-21T02:52:36;99688.78;;;13.80;72.77
24422;BME280;12600;53.326;-6.298;2023-03-21T02:55:31;99696.56;;;13.78;72.67
24422;BME280;12600;53.326;-6.298;2023-03-21T02:58:25;99698.06;;;13.75;72.65
24422;BME280;12600;53.326;-6.298;2023-03-21T03:01:18;99693.31;;;13.72;72.55
24422;BME280;12600;53.326;-6.298;2023-03-21T03:04:20;99674.88;;;13.57;72.31
24422;BME280;12600;53.326;-6.298;2023-03-21T03:07:28;99678.94;;;13.63;72.55
24422;BME280;12600;53.326;-6.298;2023-03-21T03:10:40;99680.06;;;13.62;72.77
24422;BME280;12600;53.326;-6.298;2023-03-21T03:13:47;99662.47;;;13.63;72.75
24422;BME280;12600;53.326;-6.298;2023-03-21T03:16:47;99670.44;;;13.52;73.07
24422;BME280;12600;53.326;-6.298;2023-03-21T03:19:56;99667.59;;;13.49;73.25
24422;BME280;12600;53.326;-6.298;2023-03-21T03:23:11;99662.13;;;13.49;72.68
24422;BME280;12600;53.326;-6.298;2023-03-21T03:26:07;99652.72;;;13.50;73.15
24422;BME280;12600;53.326;-6.298;2023-03-21T03:29:04;99652.72;;;13.50;73.22
24422;BME280;12600;53.326;-6.298;2023-03-21T03:32:01;99654.31;;;13.51;73.27
24422;BME280;12600;53.326;-6.298;2023-03-21T03:34:56;99655.19;;;13.55;73.53
24422;BME280;12600;53.326;-6.298;2023-03-21T03:37:54;99634.75;;;13.52;73.34
24422;BME280;12600;53.326;-6.298;2023-03-21T03:40:48;99641.84;;;13.53;73.67
24422;BME280;12600;53.326;-6.298;2023-03-21T03:44:02;99641.13;;;13.56;73.67
24422;BME280;12600;53.326;-6.298;2023-03-21T03:47:00;99625.38;;;13.53;73.35
24422;BME280;12600;53.326;-6.298;2023-03-21T03:49:59;99632.44;;;13.54;73.55
24422;BME280;12600;53.326;-6.298;2023-03-21T03:52:58;99618.66;;;13.51;73.62
24422;BME280;12600;53.326;-6.298;2023-03-21T03:56:04;99619.09;;;13.53;73.87
24422;BME280;12600;53.326;-6.298;2023-03-21T03:58:58;99620.66;;;13.54;74.06
24422;BME280;12600;53.326;-6.298;2023-03-21T04:02:13;99612.00;;;13.52;73.94
24422;BME280;12600;53.326;-6.298;2023-03-21T04:05:05;99610.94;;;13.56;74.17
24422;BME280;12600;53.326;-6.298;2023-03-21T04:07:55;99600.78;;;13.57;74.39
24422;BME280;12600;53.326;-6.298;2023-03-21T04:10:56;99592.53;;;13.57;74.36
24422;BME280;12600;53.326;-6.298;2023-03-21T04:13:45;99583.78;;;13.51;74.47
24422;BME280;12600;53.326;-6.298;2023-03-21T04:16:41;99576.34;;;13.52;74.73
24422;BME280;12600;53.326;-6.298;2023-03-21T04:19:32;99572.00;;;13.51;75.05
24422;BME280;12600;53.326;-6.298;2023-03-21T04:22:22;99562.34;;;13.41;74.90
24422;BME280;12600;53.326;-6.298;2023-03-21T04:25:12;99560.84;;;13.43;74.78
24422;BME280;12600;53.326;-6.298;2023-03-21T04:28:20;99574.75;;;13.35;75.09
24422;BME280;12600;53.326;-6.298;2023-03-21T04:31:21;99562.25;;;13.22;74.76
24422;BME280;12600;53.326;-6.298;2023-03-21T04:34:26;99551.84;;;13.15;75.27
24422;BME280;12600;53.326;-6.298;2023-03-21T04:37:21;99561.88;;;13.07;75.02
24422;BME280;12600;53.326;-6.298;2023-03-21T04:40:13;99546.63;;;12.94;75.60
24422;BME280;12600;53.326;-6.298;2023-03-21T04:43:05;99562.56;;;13.04;75.98
24422;BME280;12600;53.326;-6.298;2023-03-21T04:45:57;99570.44;;;13.06;75.71
24422;BME280;12600;53.326;-6.298;2023-03-21T04:48:47;99555.41;;;13.00;76.14
24422;BME280;12600;53.326;-6.298;2023-03-21T04:51:37;99561.06;;;13.07;76.15
24422;BME280;12600;53.326;-6.298;2023-03-21T04:54:33;99546.22;;;13.08;76.51
24422;BME280;12600;53.326;-6.298;2023-03-21T04:57:23;99550.19;;;13.10;76.74
24422;BME280;12600;53.326;-6.298;2023-03-21T05:00:14;99559.03;;;13.04;77.40
24422;BME280;12600;53.326;-6.298;2023-03-21T05:03:04;99556.13;;;13.12;77.38
24422;BME280;12600;53.326;-6.298;2023-03-21T05:05:59;99569.88;;;13.28;76.75
24422;BME280;12600;53.326;-6.298;2023-03-21T05:08:48;99552.69;;;13.31;76.98
24422;BME280;12600;53.326;-6.298;2023-03-21T05:11:40;99541.47;;;13.21;76.55
24422;BME280;12600;53.326;-6.298;2023-03-21T05:14:32;99541.38;;;13.33;76.57
24422;BME280;12600;53.326;-6.298;2023-03-21T05:17:21;99541.72;;;13.31;76.88
24422;BME280;12600;53.326;-6.298;2023-03-21T05:20:12;99555.28;;;13.40;76.91
24422;BME280;12600;53.326;-6.298;2023-03-21T05:23:04;99544.31;;;13.40;76.91
24422;BME280;12600;53.326;-6.298;2023-03-21T05:25:58;99543.50;;;13.39;77.56
24422;BME280;12600;53.326;-6.298;2023-03-21T05:29:12;99551.56;;;13.32;78.11
24422;BME280;12600;53.326;-6.298;2023-03-21T05:32:04;99552.25;;;13.29;78.20
24422;BME280;12600;53.326;-6.298;2023-03-21T05:34:54;99550.47;;;13.21;78.33
24422;BME280;12600;53.326;-6.298;2023-03-21T05:37:44;99563.00;;;13.06;79.57
24422;BME280;12600;53.326;-6.298;2023-03-21T05:40:33;99544.16;;;13.05;80.31
24422;BME280;12600;53.326;-6.298;2023-03-21T05:43:24;99550.38;;;13.02;80.43
24422;BME280;12600;53.326;-6.298;2023-03-21T05:46:15;99544.88;;;13.02;80.37
24422;BME280;12600;53.326;-6.298;2023-03-21T05:49:05;99556.44;;;12.95;81.29
24422;BME280;12600;53.326;-6.298;2023-03-21T05:51:55;99557.44;;;13.03;81.01
24422;BME280;12600;53.326;-6.298;2023-03-21T05:54:44;99561.41;;;13.05;80.95
24422;BME280;12600;53.326;-6.298;2023-03-21T05:57:34;99559.28;;;12.99;81.42
24422;BME280;12600;53.326;-6.298;2023-03-21T06:00:28;99560.78;;;12.96;81.75
24422;BME280;12600;53.326;-6.298;2023-03-21T06:03:41;99568.13;;;12.92;82.13
24422;BME280;12600;53.326;-6.298;2023-03-21T06:06:41;99556.63;;;12.86;82.58
24422;BME280;12600;53.326;-6.298;2023-03-21T06:09:30;99574.41;;;12.93;82.33
24422;BME280;12600;53.326;-6.298;2023-03-21T06:12:23;99573.50;;;12.88;82.71
24422;BME280;12600;53.326;-6.298;2023-03-21T06:15:23;99574.47;;;12.80;83.27
24422;BME280;12600;53.326;-6.298;2023-03-21T06:18:26;99578.78;;;12.81;82.91
24422;BME280;12600;53.326;-6.298;2023-03-21T06:21:41;99577.50;;;12.63;84.12
24422;BME280;12600;53.326;-6.298;2023-03-21T06:24:30;99593.81;;;12.72;83.93
24422;BME280;12600;53.326;-6.298;2023-03-21T06:27:20;99588.91;;;12.65;84.45
24422;BME280;12600;53.326;-6.298;2023-03-21T06:30:14;99595.91;;;12.63;84.95
24422;BME280;12600;53.326;-6.298;2023-03-21T06:33:15;99610.16;;;12.68;85.21
24422;BME280;12600;53.326;-6.298;2023-03-21T06:36:06;99610.31;;;12.59;86.51
24422;BME280;12600;53.326;-6.298;2023-03-21T06:38:57;99607.69;;;12.51;86.35
24422;BME280;12600;53.326;-6.298;2023-03-21T06:41:46;99614.97;;;12.59;86.60
24422;BME280;12600;53.326;-6.298;2023-03-21T06:44:36;99615.66;;;12.56;86.36
24422;BME280;12600;53.326;-6.298;2023-03-21T06:47:33;99624.38;;;12.46;86.32
24422;BME280;12600;53.326;-6.298;2023-03-21T06:50:26;99626.91;;;12.39;86.32
24422;BME280;12600;53.326;-6.298;2023-03-21T06:53:16;99616.53;;;12.32;85.89
24422;BME280;12600;53.326;-6.298;2023-03-21T06:56:26;99625.75;;;12.40;85.64
24422;BME280;12600;53.326;-6.298;2023-03-21T06:59:15;99633.19;;;12.39;85.43
24422;BME280;12600;53.326;-6.298;2023-03-21T07:02:12;99638.97;;;12.50;84.96
24422;BME280;12600;53.326;-6.298;2023-03-21T07:05:08;99642.84;;;12.49;85.06
24422;BME280;12600;53.326;-6.298;2023-03-21T07:07:57;99640.56;;;12.51;84.94
24422;BME280;12600;53.326;-6.298;2023-03-21T07:10:49;99639.22;;;12.45;85.83
24422;BME280;12600;53.326;-6.298;2023-03-21T07:13:45;99640.13;;;12.49;85.44
24422;BME280;12600;53.326;-6.298;2023-03-21T07:16:35;99642.03;;;12.60;85.00
24422;BME280;12600;53.326;-6.298;2023-03-21T07:19:25;99656.28;;;12.66;85.01
24422;BME280;12600;53.326;-6.298;2023-03-21T07:22:14;99654.69;;;12.65;84.52
24422;BME280;12600;53.326;-6.298;2023-03-21T07:25:06;99663.91;;;12.73;84.71
24422;BME280;12600;53.326;-6.298;2023-03-21T07:27:59;99659.22;;;12.73;84.38
24422;BME280;12600;53.326;-6.298;2023-03-21T07:30:56;99668.72;;;12.76;83.91
24422;BME280;12600;53.326;-6.298;2023-03-21T07:33:46;99674.88;;;12.73;83.94
24422;BME280;12600;53.326;-6.298;2023-03-21T07:36:35;99689.50;;;12.77;83.60
24422;BME280;12600;53.326;-6.298;2023-03-21T07:39:26;99675.22;;;12.71;83.94
24422;BME280;12600;53.326;-6.298;2023-03-21T07:42:17;99684.81;;;12.65;83.94
24422;BME280;12600;53.326;-6.298;2023-03-21T07:45:08;99680.72;;;12.71;84.19
24422;BME280;12600;53.326;-6.298;2023-03-21T07:47:59;99682.22;;;12.69;84.10
24422;BME280;12600;53.326;-6.298;2023-03-21T07:50:53;99704.44;;;12.67;84.13
24422;BME280;12600;53.326;-6.298;2023-03-21T07:53:42;99698.28;;;12.70;84.13
24422;BME280;12600;53.326;-6.298;2023-03-21T07:56:35;99697.38;;;12.66;84.73
24422;BME280;12600;53.326;-6.298;2023-03-21T07:59:24;99727.66;;;12.70;84.44
24422;BME280;12600;53.326;-6.298;2023-03-21T08:02:15;99716.94;;;12.52;84.89
24422;BME280;12600;53.326;-6.298;2023-03-21T08:05:07;99717.28;;;12.51;85.59
24422;BME280;12600;53.326;-6.298;2023-03-21T08:07:58;99725.50;;;12.63;85.02
24422;BME280;12600;53.326;-6.298;2023-03-21T08:10:48;99741.94;;;12.63;85.28
24422;BME280;12600;53.326;-6.298;2023-03-21T08:13:39;99734.28;;;12.69;85.52
24422;BME280;12600;53.326;-6.298;2023-03-21T08:16:28;99735.28;;;12.76;85.24
24422;BME280;12600;53.326;-6.298;2023-03-21T08:19:17;99723.53;;;12.76;85.17
24422;BME280;12600;53.326;-6.298;2023-03-21T08:22:10;99706.47;;;12.82;84.34
24422;BME280;12600;53.326;-6.298;2023-03-21T08:24:59;99711.06;;;13.06;83.78
24422;BME280;12600;53.326;-6.298;2023-03-21T08:27:49;99727.44;;;13.03;82.36
24422;BME280;12600;53.326;-6.298;2023-03-21T08:30:39;99709.19;;;12.95;80.45
24422;BME280;12600;53.326;-6.298;2023-03-21T08:33:28;99713.88;;;12.94;79.71
24422;BME280;12600;53.326;-6.298;2023-03-21T08:36:17;99714.69;;;12.95;79.75
24422;BME280;12600;53.326;-6.298;2023-03-21T08:39:08;99709.53;;;12.93;78.75
24422;BME280;12600;53.326;-6.298;2023-03-21T08:41:57;99726.78;;;12.94;78.74
24422;BME280;12600;53.326;-6.298;2023-03-21T08:44:47;99708.28;;;12.91;78.68
24422;BME280;12600;53.326;-6.298;2023-03-21T08:47:36;99723.97;;;13.18;78.06
24422;BME280;12600;53.326;-6.298;2023-03-21T08:50:26;99728.00;;;13.08;77.67
24422;BME280;12600;53.326;-6.298;2023-03-21T08:53:18;99714.09;;;13.29;77.22
24422;BME280;12600;53.326;-6.298;2023-03-21T08:56:09;99712.47;;;13.40;76.50
24422;BME280;12600;53.326;-6.298;2023-03-21T08:58:59;99723.50;;;13.72;75.45
24422;BME280;12600;53.326;-6.298;2023-03-21T09:01:49;99719.94;;;14.03;73.43
24422;BME280;12600;53.326;-6.298;2023-03-21T09:04:39;99724.72;;;14.53;71.78
24422;BME280;12600;53.326;-6.298;2023-03-21T09:07:28;99724.94;;;15.19;70.92
24422;BME280;12600;53.326;-6.298;2023-03-21T09:10:22;99726.28;;;15.67;68.42
24422;BME280;12600;53.326;-6.298;2023-03-21T09:13:13;99738.34;;;15.82;61.80
24422;BME280;12600;53.326;-6.298;2023-03-21T09:16:02;99749.41;;;16.08;60.97
24422;BME280;12600;53.326;-6.298;2023-03-21T09:18:52;99745.06;;;16.30;59.63
24422;BME280;12600;53.326;-6.298;2023-03-21T09:21:42;99750.84;;;16.48;58.80
24422;BME280;12600;53.326;-6.298;2023-03-21T09:24:32;99745.03;;;16.80;58.12
24422;BME280;12600;53.326;-6.298;2023-03-21T09:27:21;99734.47;;;16.85;56.72
24422;BME280;12600;53.326;-6.298;2023-03-21T09:30:18;99737.69;;;17.21;56.59
24422;BME280;12600;53.326;-6.298;2023-03-21T09:33:12;99733.53;;;17.71;57.32
24422;BME280;12600;53.326;-6.298;2023-03-21T09:36:11;99743.66;;;17.60;53.85
24422;BME280;12600;53.326;-6.298;2023-03-21T09:39:01;99736.44;;;17.85;54.68
24422;BME280;12600;53.326;-6.298;2023-03-21T09:42:04;99737.63;;;17.88;53.31
24422;BME280;12600;53.326;-6.298;2023-03-21T09:45:04;99743.41;;;18.13;52.52
24422;BME280;12600;53.326;-6.298;2023-03-21T09:47:57;99745.72;;;18.11;51.97
24422;BME280;12600;53.326;-6.298;2023-03-21T09:50:46;99746.38;;;17.94;52.54
24422;BME280;12600;53.326;-6.298;2023-03-21T09:53:37;99746.69;;;17.85;52.11
24422;BME280;12600;53.326;-6.298;2023-03-21T09:56:29;99739.72;;;17.61;51.94
24422;BME280;12600;53.326;-6.298;2023-03-21T09:59:23;99731.81;;;17.59;52.67
24422;BME280;12600;53.326;-6.298;2023-03-21T10:02:31;99735.53;;;17.74;51.61
24422;BME280;12600;53.326;-6.298;2023-03-21T10:05:26;99730.69;;;18.05;51.88
24422;BME280;12600;53.326;-6.298;2023-03-21T10:08:20;99724.72;;;18.03;51.32
24422;BME280;12600;53.326;-6.298;2023-03-21T10:11:14;99708.84;;;18.40;51.26
24422;BME280;12600;53.326;-6.298;2023-03-21T10:14:15;99725.31;;;18.23;50.81
24422;BME280;12600;53.326;-6.298;2023-03-21T10:17:21;99713.09;;;18.27;50.91
24422;BME280;12600;53.326;-6.298;2023-03-21T10:20:17;99701.38;;;18.48;51.22
24422;BME280;12600;53.326;-6.298;2023-03-21T10:23:14;99722.94;;;18.83;50.77
24422;BME280;12600;53.326;-6.298;2023-03-21T10:26:06;99721.63;;;19.46;50.47
24422;BME280;12600;53.326;-6.298;2023-03-21T10:29:01;99717.72;;;19.62;48.96
24422;BME280;12600;53.326;-6.298;2023-03-21T10:31:52;99700.59;;;19.27;49.15
24422;BME280;12600;53.326;-6.298;2023-03-21T10:34:45;99718.44;;;19.37;50.33
24422;BME280;12600;53.326;-6.298;2023-03-21T10:37:35;99728.31;;;19.38;50.67
24422;BME280;12600;53.326;-6.298;2023-03-21T10:40:26;99724.69;;;19.16;51.10
24422;BME280;12600;53.326;-6.298;2023-03-21T10:43:35;99707.53;;;18.82;51.37
24422;BME280;12600;53.326;-6.298;2023-03-21T10:46:26;99711.47;;;18.78;52.18
24422;BME280;12600;53.326;-6.298;2023-03-21T10:49:16;99720.56;;;18.82;51.70
24422;BME280;12600;53.326;-6.298;2023-03-21T10:52:19;99732.00;;;18.73;51.35
24422;BME280;12600;53.326;-6.298;2023-03-21T10:55:21;99717.75;;;18.75;51.48
24422;BME280;12600;53.326;-6.298;2023-03-21T10:58:17;99721.50;;;19.11;50.68
24422;BME280;12600;53.326;-6.298;2023-03-21T11:01:15;99725.94;;;19.29;49.39
24422;BME280;12600;53.326;-6.298;2023-03-21T11:04:15;99726.88;;;19.87;48.27
24422;BME280;12600;53.326;-6.298;2023-03-21T11:07:06;99734.44;;;20.22;47.87
24422;BME280;12600;53.326;-6.298;2023-03-21T11:10:12;99728.06;;;19.97;47.10
24422;BME280;12600;53.326;-6.298;2023-03-21T11:13:24;99743.28;;;19.16;48.29
24422;BME280;12600;53.326;-6.298;2023-03-21T11:16:22;99740.25;;;18.18;51.15
24422;BME280;12600;53.326;-6.298;2023-03-21T11:19:16;99729.16;;;17.70;53.49
24422;BME280;12600;53.326;-6.298;2023-03-21T11:22:06;99728.13;;;17.48;55.62
24422;BME280;12600;53.326;-6.298;2023-03-21T11:24:59;99714.66;;;17.43;55.46
24422;BME280;12600;53.326;-6.298;2023-03-21T11:27:52;99730.28;;;17.66;55.13
24422;BME280;12600;53.326;-6.298;2023-03-21T11:30:52;99733.56;;;17.75;55.00
24422;BME280;12600;53.326;-6.298;2023-03-21T11:33:50;99742.97;;;18.11;54.12
24422;BME280;12600;53.326;-6.298;2023-03-21T11:36:40;99729.25;;;18.22;53.64
24422;BME280;12600;53.326;-6.298;2023-03-21T11:39:33;99735.94;;;18.21;52.67
24422;BME280;12600;53.326;-6.298;2023-03-21T11:42:29;99732.16;;;18.39;52.65
24422;BME280;12600;53.326;-6.298;2023-03-21T11:45:21;99756.91;;;18.77;51.54
24422;BME280;12600;53.326;-6.298;2023-03-21T11:48:13;99722.81;;;18.62;50.37
24422;BME280;12600;53.326;-6.298;2023-03-21T11:51:11;99734.97;;;18.47;50.52
24422;BME280;12600;53.326;-6.298;2023-03-21T11:54:11;99659.06;;;17.85;51.21
24422;BME280;12600;53.326;-6.298;2023-03-21T11:57:10;99737.03;;;18.09;51.44
24422;BME280;12600;53.326;-6.298;2023-03-21T12:00:06;99704.59;;;18.02;51.79
24422;BME280;12600;53.326;-6.298;2023-03-21T12:03:37;99726.22;;;18.37;51.04
24422;BME280;12600;53.326;-6.298;2023-03-21T12:06:37;99706.69;;;18.20;50.15
24422;BME280;12600;53.326;-6.298;2023-03-21T12:09:37;99731.63;;;18.23;47.96
24422;BME280;12600;53.326;-6.298;2023-03-21T12:12:37;99701.69;;;17.84;48.33
24422;BME280;12600;53.326;-6.298;2023-03-21T12:15:35;99744.53;;;18.08;48.90
24422;BME280;12600;53.326;-6.298;2023-03-21T12:19:05;99729.63;;;17.76;48.78
24422;BME280;12600;53.326;-6.298;2023-03-21T12:22:05;99708.66;;;17.34;48.89
24422;BME280;12600;53.326;-6.298;2023-03-21T12:25:05;99733.22;;;17.43;49.10
24422;BME280;12600;53.326;-6.298;2023-03-21T12:28:07;99723.41;;;17.15;50.28
24422;BME280;12600;53.326;-6.298;2023-03-21T12:31:20;99732.59;;;16.93;52.43
24422;BME280;12600;53.326;-6.298;2023-03-21T12:34:34;99713.28;;;16.66;53.56
24422;BME280;12600;53.326;-6.298;2023-03-21T12:37:35;99712.38;;;16.59;54.27
24422;BME280;12600;53.326;-6.298;2023-03-21T12:40:42;99715.91;;;16.29;55.19
24422;BME280;12600;53.326;-6.298;2023-03-21T12:43:43;99716.88;;;16.17;57.25
24422;BME280;12600;53.326;-6.298;2023-03-21T12:46:42;99727.66;;;16.03;58.41
24422;BME280;12600;53.326;-6.298;2023-03-21T12:49:38;99707.53;;;15.99;58.13
24422;BME280;12600;53.326;-6.298;2023-03-21T12:52:32;99707.03;;;16.16;58.57
24422;BME280;12600;53.326;-6.298;2023-03-21T12:55:27;99692.53;;;16.46;57.48
24422;BME280;12600;53.326;-6.298;2023-03-21T12:58:20;99705.72;;;16.86;56.76
24422;BME280;12600;53.326;-6.298;2023-03-21T13:01:12;99706.88;;;16.59;54.74
24422;BME280;12600;53.326;-6.298;2023-03-21T13:04:41;99691.19;;;16.63;54.49
24422;BME280;12600;53.326;-6.298;2023-03-21T13:07:38;99699.03;;;16.34;54.33
24422;BME280;12600;53.326;-6.298;2023-03-21T13:10:29;99705.50;;;16.45;53.83
24422;BME280;12600;53.326;-6.298;2023-03-21T13:13:25;99670.13;;;16.51;53.73
24422;BME280;12600;53.326;-6.298;2023-03-21T13:16:21;99670.84;;;16.44;53.06
24422;BME280;12600;53.326;-6.298;2023-03-21T13:19:19;99594.34;;;16.11;52.47
24422;BME280;12600;53.326;-6.298;2023-03-21T13:22:22;99663.63;;;16.66;51.97
24422;BME280;12600;53.326;-6.298;2023-03-21T13:25:19;99646.47;;;16.76;52.26
24422;BME280;12600;53.326;-6.298;2023-03-21T13:28:19;99634.56;;;16.69;51.68
24422;BME280;12600;53.326;-6.298;2023-03-21T13:31:18;99638.72;;;16.86;51.36
24422;BME280;12600;53.326;-6.298;2023-03-21T13:34:09;99644.16;;;17.16;50.98
24422;BME280;12600;53.326;-6.298;2023-03-21T13:36:58;99637.59;;;17.27;50.61
24422;BME280;12600;53.326;-6.298;2023-03-21T13:39:50;99617.94;;;17.36;50.59
24422;BME280;12600;53.326;-6.298;2023-03-21T13:42:44;99605.28;;;17.31;49.65
24422;BME280;12600;53.326;-6.298;2023-03-21T13:45:45;99588.38;;;17.40;49.65
24422;BME280;12600;53.326;-6.298;2023-03-21T13:48:55;99598.84;;;17.61;49.25
24422;BME280;12600;53.326;-6.298;2023-03-21T13:51:51;99577.72;;;17.39;49.25
24422;BME280;12600;53.326;-6.298;2023-03-21T13:54:52;99583.78;;;17.55;48.94
24422;BME280;12600;53.326;-6.298;2023-03-21T13:57:46;99576.69;;;17.54;49.13
24422;BME280;12600;53.326;-6.298;2023-03-21T14:00:38;99582.13;;;17.47;49.32
24422;BME280;12600;53.326;-6.298;2023-03-21T14:03:29;99575.63;;;17.69;49.58
24422;BME280;12600;53.326;-6.298;2023-03-21T14:06:21;99575.56;;;17.62;49.89
24422;BME280;12600;53.326;-6.298;2023-03-21T14:09:24;99591.31;;;17.58;49.92
24422;BME280;12600;53.326;-6.298;2023-03-21T14:12:17;99577.78;;;17.46;49.70
24422;BME280;12600;53.326;-6.298;2023-03-21T14:15:17;99555.97;;;17.30;50.57
24422;BME280;12600;53.326;-6.298;2023-03-21T14:18:13;99546.50;;;17.31;50.31
24422;BME280;12600;53.326;-6.298;2023-03-21T14:21:24;99531.69;;;17.05;51.09
24422;BME280;12600;53.326;-6.298;2023-03-21T14:24:15;99523.63;;;16.86;51.22
24422;BME280;12600;53.326;-6.298;2023-03-21T14:27:05;99531.94;;;16.56;51.80
24422;BME280;12600;53.326;-6.298;2023-03-21T14:29:57;99509.38;;;16.47;52.54
24422;BME280;12600;53.326;-6.298;2023-03-21T14:32:47;99501.00;;;16.36;52.79
24422;BME280;12600;53.326;-6.298;2023-03-21T14:35:39;99514.81;;;16.40;53.34
24422;BME280;12600;53.326;-6.298;2023-03-21T14:38:34;99491.25;;;16.12;54.32
24422;BME280;12600;53.326;-6.298;2023-03-21T14:41:26;99480.38;;;15.93;55.86
24422;BME280;12600;53.326;-6.298;2023-03-21T14:44:20;99479.53;;;15.89;56.18
24422;BME280;12600;53.326;-6.298;2023-03-21T14:47:20;99462.41;;;15.73;57.18
24422;BME280;12600;53.326;-6.298;2023-03-21T14:50:10;99462.16;;;15.58;57.54
24422;BME280;12600;53.326;-6.298;2023-03-21T14:53:00;99471.41;;;15.47;58.68
24422;BME280;12600;53.326;-6.298;2023-03-21T14:55:54;99443.75;;;15.36;58.86
24422;BME280;12600;53.326;-6.298;2023-03-21T14:58:45;99444.00;;;15.27;59.63
24422;BME280;12600;53.326;-6.298;2023-03-21T15:01:35;99441.72;;;15.06;60.11
24422;BME280;12600;53.326;-6.298;2023-03-21T15:04:26;99434.56;;;15.02;60.35
24422;BME280;12600;53.326;-6.298;2023-03-21T15:07:25;99425.28;;;15.10;60.42
24422;BME280;12600;53.326;-6.298;2023-03-21T15:10:16;99415.84;;;15.11;60.34
24422;BME280;12600;53.326;-6.298;2023-03-21T15:13:14;99395.47;;;15.16;60.68
24422;BME280;12600;53.326;-6.298;2023-03-21T15:16:06;99405.78;;;15.22;60.94
24422;BME280;12600;53.326;-6.298;2023-03-21T15:18:56;99404.88;;;15.15;61.55
24422;BME280;12600;53.326;-6.298;2023-03-21T15:21:50;99395.56;;;14.96;62.59
24422;BME280;12600;53.326;-6.298;2023-03-21T15:24:45;99402.66;;;14.97;62.45